createdAt,value
2022-09-13T00:00:06.565Z,100004.81
2022-09-13T00:01:13.699Z,100019.25
2022-09-13T00:01:48.310Z,100000.28
2022-09-13T00:02:35.556Z,100015.13
2022-09-13T00:03:11.176Z,100019.47
2022-09-13T00:03:58.583Z,100024.19
2022-09-13T00:04:32.248Z,100025.00
2022-09-13T00:05:20.548Z,100022.97
2022-09-13T00:05:54.389Z,100008.16
2022-09-13T00:06:34.586Z,100014.13
2022-09-13T00:07:08.694Z,100010.66
2022-09-13T00:07:42.253Z,100005.09
2022-09-13T00:08:23.570Z,99993.28
2022-09-13T00:08:58.138Z,99997.53
2022-09-13T00:09:32.271Z,100006.34
2022-09-13T00:10:13.559Z,100008.50
2022-09-13T00:10:49.674Z,100007.66
2022-09-13T00:11:26.364Z,100012.28
2022-09-13T00:12:06.581Z,100006.84
2022-09-13T00:12:40.609Z,100004.78
2022-09-13T00:13:17.149Z,100000.53
2022-09-13T00:13:58.576Z,100009.56
2022-09-13T00:14:32.902Z,100013.84
2022-09-13T00:15:07.148Z,100003.91
2022-09-13T00:15:53.559Z,100007.31
2022-09-13T00:16:29.712Z,100009.56
2022-09-13T00:17:03.359Z,100010.03
2022-09-13T00:17:44.566Z,100008.75
2022-09-13T00:18:18.640Z,99997.56
2022-09-13T00:18:53.771Z,100013.94
2022-09-13T00:19:33.565Z,99998.59
2022-09-13T00:20:08.533Z,100006.25
2022-09-13T00:20:42.387Z,100003.91
2022-09-13T00:21:25.562Z,99998.50
2022-09-13T00:21:59.642Z,99992.50
2022-09-13T00:22:33.481Z,100004.13
2022-09-13T00:23:14.604Z,99994.13
2022-09-13T00:23:55.637Z,99989.50
2022-09-13T00:24:29.242Z,100007.66
2022-09-13T00:25:11.535Z,99991.66
2022-09-13T00:25:45.602Z,100000.72
2022-09-13T00:26:27.185Z,99986.72
2022-09-13T00:27:08.575Z,99997.31
2022-09-13T00:27:44.645Z,99992.84
2022-09-13T00:28:24.576Z,99997.22
2022-09-13T00:29:05.671Z,99996.34
2022-09-13T00:29:45.549Z,99996.78
2022-09-13T00:30:25.614Z,100005.44
2022-09-13T00:31:10.536Z,100002.75
2022-09-13T00:31:51.719Z,99994.38
2022-09-13T00:32:31.529Z,99989.41
2022-09-13T00:33:12.626Z,99982.16
2022-09-13T00:33:52.586Z,99997.63
2022-09-13T00:34:32.604Z,99999.03
2022-09-13T00:35:13.524Z,99989.13
2022-09-13T00:35:53.650Z,99990.50
2022-09-13T00:36:34.576Z,99984.75
2022-09-13T00:37:14.642Z,99977.41
2022-09-13T00:37:55.536Z,99975.91
2022-09-13T00:38:35.911Z,99975.38
2022-09-13T00:39:18.589Z,99983.59
2022-09-13T00:39:59.652Z,99995.97
2022-09-13T00:40:44.534Z,99991.22
2022-09-13T00:41:26.603Z,99986.34
2022-09-13T00:42:07.539Z,99973.09
2022-09-13T00:42:47.599Z,99979.59
2022-09-13T00:43:51.546Z,99986.88
2022-09-13T00:45:09.550Z,99988.25
2022-09-13T00:45:43.313Z,99985.69
2022-09-13T00:46:58.538Z,99988.88
2022-09-13T00:47:59.312Z,99978.66
2022-09-13T00:48:47.542Z,99971.88
2022-09-13T00:49:34.121Z,99956.22
2022-09-13T00:50:32.555Z,99979.00
2022-09-13T00:51:07.327Z,99978.66
2022-09-13T00:51:57.516Z,99983.91
2022-09-13T00:52:31.826Z,99971.88
2022-09-13T00:53:26.549Z,99977.66
2022-09-13T00:54:01.235Z,99978.47
2022-09-13T00:54:57.517Z,99963.34
2022-09-13T00:56:01.604Z,99982.41
2022-09-13T00:56:48.621Z,99966.59
2022-09-13T00:57:29.517Z,99954.50
2022-09-13T00:58:16.561Z,99967.81
2022-09-13T00:59:05.504Z,99968.34
2022-09-13T01:00:12.297Z,99967.81
2022-09-13T01:00:53.516Z,99962.72
2022-09-13T01:01:44.594Z,99956.75
2022-09-13T01:02:24.603Z,99964.06
2022-09-13T01:03:11.494Z,99945.38
2022-09-13T01:03:52.550Z,99965.81
2022-09-13T01:04:34.485Z,99961.91
2022-09-13T01:05:15.653Z,99957.31
2022-09-13T01:06:00.492Z,99960.56
2022-09-13T01:06:42.813Z,99948.16
2022-09-13T01:07:24.549Z,99929.28
2022-09-13T01:08:10.237Z,99954.13
2022-09-13T01:08:56.517Z,99952.44
2022-09-13T01:09:38.033Z,99952.59
2022-09-13T01:10:18.480Z,99934.38
2022-09-13T01:11:01.280Z,99940.00
2022-09-13T01:11:56.521Z,99943.75
2022-09-13T01:13:19.537Z,99940.00
2022-09-13T01:13:53.374Z,99940.56
2022-09-13T01:14:41.488Z,99940.38
2022-09-13T01:15:15.540Z,99949.78
2022-09-13T01:16:03.578Z,99946.22
2022-09-13T01:16:38.394Z,99938.38
2022-09-13T01:17:25.512Z,99948.22
2022-09-13T01:18:00.372Z,99907.38
2022-09-13T01:18:40.537Z,99944.97
2022-09-13T01:19:14.613Z,99947.16
2022-09-13T01:19:48.272Z,99945.59
2022-09-13T01:20:47.495Z,99937.63
2022-09-13T01:21:56.620Z,99940.84
2022-09-13T01:23:12.426Z,99947.16
2022-09-13T01:24:24.513Z,99937.63
2022-09-13T01:25:36.580Z,99938.66
2022-09-13T01:26:52.781Z,99934.91
2022-09-13T01:27:58.480Z,99941.38
2022-09-13T01:29:16.618Z,99943.06
2022-09-13T01:30:24.514Z,99951.53
2022-09-13T01:31:33.703Z,99948.97
2022-09-13T01:33:01.484Z,99940.94
2022-09-13T01:34:03.524Z,99954.50
2022-09-13T01:34:49.474Z,99952.81
2022-09-13T01:36:05.489Z,99953.44
2022-09-13T01:37:27.909Z,99952.38
2022-09-13T01:38:48.490Z,99952.06
2022-09-13T01:39:52.692Z,99946.97
2022-09-13T01:41:20.581Z,99955.41
2022-09-13T01:42:10.949Z,99942.91
2022-09-13T01:43:29.468Z,99947.59
2022-09-13T01:44:16.811Z,99943.56
2022-09-13T01:45:28.508Z,99944.72
2022-09-13T01:46:30.506Z,99934.72
2022-09-13T01:47:36.576Z,99934.06
2022-09-13T01:48:45.521Z,99934.91
2022-09-13T01:49:36.804Z,99931.94
2022-09-13T01:50:32.447Z,99926.91
2022-09-13T01:51:37.509Z,99916.06
2022-09-13T01:52:43.046Z,99927.88
2022-09-13T01:54:04.455Z,99938.00
2022-09-13T01:55:08.689Z,99939.03
2022-09-13T01:56:06.465Z,99933.28
2022-09-13T01:57:46.593Z,99930.41
2022-09-13T01:58:34.545Z,99929.19
2022-09-13T01:59:50.505Z,99929.00
2022-09-13T02:00:25.528Z,99928.00
2022-09-13T02:01:38.443Z,99930.25
2022-09-13T02:02:32.982Z,99922.91
2022-09-13T02:03:21.467Z,99927.63
2022-09-13T02:04:06.535Z,99919.19
2022-09-13T02:05:09.448Z,99921.50
2022-09-13T02:06:01.570Z,99918.31
2022-09-13T02:06:57.459Z,99923.94
2022-09-13T02:07:49.647Z,99916.44
2022-09-13T02:08:56.489Z,99917.78
2022-09-13T02:09:41.563Z,99921.50
2022-09-13T02:10:36.490Z,99909.25
2022-09-13T02:11:22.600Z,99915.53
2022-09-13T02:12:15.445Z,99917.78
2022-09-13T02:12:56.580Z,99903.31
2022-09-13T02:13:43.442Z,99906.25
2022-09-13T02:14:31.472Z,99921.22
2022-09-13T02:15:24.564Z,99921.22
2022-09-13T02:16:22.447Z,99894.44
2022-09-13T02:17:19.563Z,99916.72
2022-09-13T02:18:19.461Z,99918.81
2022-09-13T02:18:57.720Z,99906.19
2022-09-13T02:19:50.501Z,99916.91
2022-09-13T02:20:40.493Z,99910.25
2022-09-13T02:21:34.417Z,99905.47
2022-09-13T02:22:09.548Z,99902.25
2022-09-13T02:23:02.457Z,99901.72
2022-09-13T02:23:58.545Z,99903.72
2022-09-13T02:24:52.476Z,99902.25
2022-09-13T02:25:28.500Z,99904.47
2022-09-13T02:26:16.433Z,99882.72
2022-09-13T02:26:52.815Z,99902.31
2022-09-13T02:27:41.468Z,99893.63
2022-09-13T02:28:19.513Z,99901.75
2022-09-13T02:29:10.414Z,99904.19
2022-09-13T02:29:47.488Z,99903.00
2022-09-13T02:30:28.474Z,99905.56
2022-09-13T02:31:09.503Z,99886.19
2022-09-13T02:32:02.480Z,99894.72
2022-09-13T02:33:32.581Z,99894.66
2022-09-13T02:34:24.442Z,99905.56
2022-09-13T02:35:20.610Z,99909.06
2022-09-13T02:36:14.449Z,99913.97
2022-09-13T02:36:55.505Z,99892.03
2022-09-13T02:37:39.437Z,99902.25
2022-09-13T02:38:32.517Z,99902.41
2022-09-13T02:39:21.618Z,99890.16
2022-09-13T02:40:08.645Z,99895.59
2022-09-13T02:41:00.618Z,99904.75
2022-09-13T02:41:48.469Z,99881.28
2022-09-13T02:42:47.862Z,99901.00
2022-09-13T02:43:51.617Z,99894.22
2022-09-13T02:44:54.579Z,99890.97
2022-09-13T02:45:53.477Z,99886.50
2022-09-13T02:47:07.487Z,99884.16
2022-09-13T02:48:18.439Z,99887.09
2022-09-13T02:49:35.439Z,99884.06
2022-09-13T02:50:51.436Z,99893.22
2022-09-13T02:52:03.433Z,99892.19
2022-09-13T02:52:59.457Z,99876.72
2022-09-13T02:54:20.519Z,99887.09
2022-09-13T02:55:12.432Z,99888.41
2022-09-13T02:56:00.511Z,99888.09
2022-09-13T02:57:14.449Z,99882.31
2022-09-13T02:58:38.523Z,99886.09
2022-09-13T02:59:37.412Z,99886.75
2022-09-13T03:00:31.441Z,99889.47
2022-09-13T03:01:25.436Z,99886.38
2022-09-13T03:02:24.461Z,99866.81
2022-09-13T03:03:21.532Z,99886.66
2022-09-13T03:04:02.458Z,99871.09
2022-09-13T03:04:42.453Z,99880.84
2022-09-13T03:05:23.417Z,99879.84
2022-09-13T03:06:03.487Z,99865.84
2022-09-13T03:06:44.419Z,99881.69
2022-09-13T03:07:24.466Z,99875.78
2022-09-13T03:08:05.404Z,99875.41
2022-09-13T03:08:45.579Z,99875.41
2022-09-13T03:09:26.434Z,99876.81
2022-09-13T03:10:16.543Z,99862.56
2022-09-13T03:11:28.413Z,99865.97
2022-09-13T03:12:49.465Z,99859.13
2022-09-13T03:13:43.376Z,99862.56
2022-09-13T03:15:08.459Z,99847.78
2022-09-13T03:16:58.422Z,99864.94
2022-09-13T03:18:28.442Z,99861.94
2022-09-13T03:19:47.388Z,99862.22
2022-09-13T03:21:14.403Z,99850.88
2022-09-13T03:22:13.484Z,99868.88
2022-09-13T03:23:12.389Z,99871.47
2022-09-13T03:24:30.493Z,99864.16
2022-09-13T03:25:45.410Z,99869.06
2022-09-13T03:26:59.444Z,99848.63
2022-09-13T03:28:20.374Z,99865.41
2022-09-13T03:29:36.410Z,99863.19
2022-09-13T03:30:31.376Z,99857.06
2022-09-13T03:31:47.427Z,99854.91
2022-09-13T03:33:10.437Z,99852.88
2022-09-13T03:34:33.432Z,99850.03
2022-09-13T03:36:11.403Z,99853.88
2022-09-13T03:37:07.494Z,99843.19
2022-09-13T03:38:21.424Z,99830.19
2022-09-13T03:39:44.507Z,99844.94
2022-09-13T03:40:39.378Z,99847.09
2022-09-13T03:41:25.460Z,99832.91
2022-09-13T03:42:12.396Z,99838.59
2022-09-13T03:43:02.487Z,99838.34
2022-09-13T03:44:05.392Z,99836.34
2022-09-13T03:44:45.443Z,99836.59
2022-09-13T03:45:29.412Z,99830.47
2022-09-13T03:46:19.449Z,99835.03
2022-09-13T03:47:04.333Z,99839.13
2022-09-13T03:47:47.420Z,99834.56
2022-09-13T03:48:29.394Z,99832.53
2022-09-13T03:49:29.402Z,99824.34
2022-09-13T03:50:24.376Z,99831.16
2022-09-13T03:51:20.379Z,99814.91
2022-09-13T03:52:07.550Z,99828.00
2022-09-13T03:52:48.356Z,99809.78
2022-09-13T03:53:32.408Z,99813.50
2022-09-13T03:54:18.353Z,99806.38
2022-09-13T03:55:00.425Z,99805.53
2022-09-13T03:55:36.445Z,99802.25
2022-09-13T03:56:26.356Z,99806.38
2022-09-13T03:57:24.477Z,99808.75
2022-09-13T03:58:11.360Z,99804.97
2022-09-13T03:58:45.433Z,99811.41
2022-09-13T03:59:32.335Z,99814.41
2022-09-13T04:00:13.474Z,99820.16
2022-09-13T04:01:07.417Z,99811.88
2022-09-13T04:02:01.475Z,99812.81
2022-09-13T04:02:55.353Z,99812.97
2022-09-13T04:03:55.839Z,99816.59
2022-09-13T04:04:52.366Z,99811.00
2022-09-13T04:05:32.378Z,99810.97
2022-09-13T04:06:13.372Z,99815.88
2022-09-13T04:06:53.336Z,99816.78
2022-09-13T04:07:33.398Z,99811.34
2022-09-13T04:08:15.368Z,99811.19
2022-09-13T04:08:55.462Z,99800.25
2022-09-13T04:09:37.392Z,99814.53
2022-09-13T04:10:17.425Z,99799.03
2022-09-13T04:10:58.393Z,99814.06
2022-09-13T04:11:39.611Z,99824.91
2022-09-13T04:12:21.376Z,99821.31
2022-09-13T04:13:01.425Z,99814.44
2022-09-13T04:13:43.367Z,99819.72
2022-09-13T04:14:26.182Z,99811.34
2022-09-13T04:15:07.372Z,99820.03
2022-09-13T04:15:47.456Z,99818.09
2022-09-13T04:16:27.519Z,99816.91
2022-09-13T04:17:07.516Z,99827.47
2022-09-13T04:17:47.390Z,99820.59
2022-09-13T04:18:27.773Z,99831.09
2022-09-13T04:19:07.341Z,99820.66
2022-09-13T04:20:27.811Z,99797.91
2022-09-13T04:21:08.486Z,99810.03
2022-09-13T04:22:32.561Z,99823.97
2022-09-13T04:24:32.340Z,99815.44
2022-09-13T04:25:22.471Z,99783.41
2022-09-13T04:30:03.817Z,99819.06
2022-09-13T04:30:51.331Z,99822.50
2022-09-13T04:31:25.199Z,99820.81
2022-09-13T04:32:13.339Z,99822.81
2022-09-13T04:32:47.009Z,99815.69
2022-09-13T04:33:34.371Z,99823.13
2022-09-13T04:34:14.395Z,99821.72
2022-09-13T04:34:54.552Z,99823.75
2022-09-13T04:35:35.322Z,99827.53
2022-09-13T04:36:16.941Z,99816.06
2022-09-13T04:36:59.429Z,99821.72
2022-09-13T04:37:39.531Z,99822.91
2022-09-13T04:38:19.381Z,99820.72
2022-09-13T04:39:00.476Z,99823.13
2022-09-13T04:39:40.448Z,99826.53
2022-09-13T04:40:22.971Z,99818.31
2022-09-13T04:41:05.311Z,99817.00
2022-09-13T04:41:48.166Z,99821.44
2022-09-13T04:42:29.385Z,99820.88
2022-09-13T04:43:10.418Z,99829.06
2022-09-13T04:43:50.304Z,99822.81
2022-09-13T04:44:30.428Z,99821.66
2022-09-13T04:45:13.320Z,99816.38
2022-09-13T04:45:53.891Z,99811.22
2022-09-13T04:46:35.292Z,99820.41
2022-09-13T04:47:16.376Z,99805.19
2022-09-13T04:48:00.327Z,99811.44
2022-09-13T04:48:40.356Z,99812.59
2022-09-13T04:49:22.353Z,99816.00
2022-09-13T04:50:02.406Z,99816.88
2022-09-13T04:50:42.413Z,99814.53
2022-09-13T04:51:23.768Z,99810.28
2022-09-13T04:52:04.378Z,99803.16
2022-09-13T04:52:45.433Z,99820.47
2022-09-13T04:53:26.368Z,99813.22
2022-09-13T04:54:06.495Z,99815.22
2022-09-13T04:54:46.393Z,99813.06
2022-09-13T04:55:26.480Z,99790.63
2022-09-13T04:56:11.358Z,99801.22
2022-09-13T04:56:55.201Z,99809.66
2022-09-13T04:57:36.355Z,99814.38
2022-09-13T04:58:20.053Z,99805.25
2022-09-13T04:59:06.350Z,99805.63
2022-09-13T04:59:46.646Z,99801.91
2022-09-13T05:00:26.481Z,99800.50
2022-09-13T05:01:19.468Z,99796.81
2022-09-13T05:01:53.100Z,99802.75
2022-09-13T05:02:40.438Z,99803.59
2022-09-13T05:03:13.993Z,99795.81
2022-09-13T05:04:02.319Z,99802.59
2022-09-13T05:04:36.002Z,99805.31
2022-09-13T05:05:23.297Z,99809.75
2022-09-13T05:06:07.056Z,99804.78
2022-09-13T05:06:48.313Z,99808.50
2022-09-13T05:07:22.363Z,99802.94
2022-09-13T05:07:56.066Z,99805.94
2022-09-13T05:08:37.342Z,99807.66
2022-09-13T05:09:11.438Z,99812.44
2022-09-13T05:09:45.045Z,99817.88
2022-09-13T05:10:26.300Z,99815.78
2022-09-13T05:11:00.374Z,99811.06
2022-09-13T05:11:35.054Z,99815.84
2022-09-13T05:12:15.346Z,99813.81
2022-09-13T05:12:49.472Z,99811.28
2022-09-13T05:13:23.255Z,99818.94
2022-09-13T05:14:06.389Z,99802.84
2022-09-13T05:14:40.459Z,99792.78
2022-09-13T05:15:14.082Z,99809.50
2022-09-13T05:15:55.319Z,99814.94
2022-09-13T05:16:31.361Z,99813.75
2022-09-13T05:17:05.291Z,99795.97
2022-09-13T05:17:45.295Z,99813.28
2022-09-13T05:18:19.341Z,99806.31
2022-09-13T05:18:53.634Z,99820.78
2022-09-13T05:19:33.295Z,99802.44
2022-09-13T05:20:07.379Z,99817.75
2022-09-13T05:20:41.067Z,99815.88
2022-09-13T05:21:22.286Z,99807.06
2022-09-13T05:21:56.377Z,99819.31
2022-09-13T05:22:29.999Z,99811.34
2022-09-13T05:23:10.320Z,99782.28
2022-09-13T05:23:44.370Z,99818.84
2022-09-13T05:24:18.015Z,99799.94
2022-09-13T05:24:58.291Z,99801.88
2022-09-13T05:25:32.389Z,99801.72
2022-09-13T05:26:06.836Z,99807.00
2022-09-13T05:26:47.305Z,99801.56
2022-09-13T05:27:21.397Z,99801.41
2022-09-13T05:27:54.992Z,99803.94
2022-09-13T05:28:38.346Z,99796.16
2022-09-13T05:29:14.386Z,99800.38
2022-09-13T05:29:48.008Z,99793.28
2022-09-13T05:30:28.313Z,99803.25
2022-09-13T05:31:07.386Z,99795.13
2022-09-13T05:31:42.813Z,99800.38
2022-09-13T05:32:23.289Z,99799.53
2022-09-13T05:32:58.026Z,99796.31
2022-09-13T05:33:35.735Z,99800.56
2022-09-13T05:34:20.310Z,99803.94
2022-09-13T05:34:54.366Z,99798.38
2022-09-13T05:35:28.009Z,99800.13
2022-09-13T05:36:10.317Z,99778.47
2022-09-13T05:36:45.457Z,99798.81
2022-09-13T05:37:19.234Z,99803.22
2022-09-13T05:37:59.253Z,99806.94
2022-09-13T05:38:33.361Z,99807.44
2022-09-13T05:40:11.912Z,99801.72
2022-09-13T05:40:46.578Z,99804.28
2022-09-13T05:41:21.011Z,99799.47
2022-09-13T05:42:01.314Z,99802.56
2022-09-13T05:42:35.428Z,99807.66
2022-09-13T05:43:09.040Z,99799.22
2022-09-13T05:43:49.281Z,99783.72
2022-09-13T05:44:23.405Z,99794.81
2022-09-13T05:44:57.388Z,99797.34
2022-09-13T05:45:37.356Z,99799.06
2022-09-13T05:46:24.346Z,99797.66
2022-09-13T05:46:57.988Z,99791.56
2022-09-13T05:47:38.272Z,99796.03
2022-09-13T05:48:12.462Z,99792.31
2022-09-13T05:48:47.273Z,99797.72
2022-09-13T05:49:27.258Z,99805.03
2022-09-13T05:50:10.359Z,99793.31
2022-09-13T05:50:58.123Z,99795.41
2022-09-13T05:51:39.351Z,99788.28
2022-09-13T05:52:20.285Z,99793.38
2022-09-13T05:53:01.339Z,99792.03
2022-09-13T05:53:42.262Z,99797.97
2022-09-13T05:54:22.397Z,99794.28
2022-09-13T05:55:02.305Z,99792.78
2022-09-13T05:55:43.047Z,99778.84
2022-09-13T05:56:29.297Z,99784.47
2022-09-13T05:57:09.288Z,99790.75
2022-09-13T05:57:49.262Z,99789.25
2022-09-13T05:58:29.355Z,99792.13
2022-09-13T05:59:09.279Z,99783.66
2022-09-13T05:59:50.342Z,99780.63
2022-09-13T06:00:31.265Z,99788.59
2022-09-13T06:01:12.350Z,99784.88
2022-09-13T06:01:52.418Z,99771.78
2022-09-13T06:02:32.410Z,99779.13
2022-09-13T06:03:14.246Z,99782.34
2022-09-13T06:03:56.384Z,99785.91
2022-09-13T06:04:36.239Z,99787.09
2022-09-13T06:05:17.412Z,99781.88
2022-09-13T06:06:01.260Z,99781.03
2022-09-13T06:06:42.360Z,99790.00
2022-09-13T06:07:22.289Z,99782.78
2022-09-13T06:08:02.335Z,99776.63
2022-09-13T06:08:43.330Z,99790.25
2022-09-13T06:09:23.314Z,99787.38
2022-09-13T06:10:04.259Z,99787.53
2022-09-13T06:10:44.293Z,99784.81
2022-09-13T06:11:24.286Z,99785.13
2022-09-13T06:12:04.339Z,99781.59
2022-09-13T06:12:45.296Z,99782.47
2022-09-13T06:13:25.357Z,99773.63
2022-09-13T06:14:06.250Z,99777.72
2022-09-13T06:14:46.306Z,99769.38
2022-09-13T06:15:26.257Z,99766.66
2022-09-13T06:16:08.373Z,99770.41
2022-09-13T06:16:48.216Z,99777.72
2022-09-13T06:17:28.337Z,99763.13
2022-09-13T06:18:08.320Z,99761.44
2022-09-13T06:18:48.850Z,99758.75
2022-09-13T06:19:29.228Z,99755.69
2022-09-13T06:20:10.726Z,99756.41
2022-09-13T06:20:51.265Z,99757.78
2022-09-13T06:21:32.562Z,99752.69
2022-09-13T06:22:13.229Z,99755.09
2022-09-13T06:22:55.386Z,99752.19
2022-09-13T06:23:36.277Z,99751.66
2022-09-13T06:24:16.256Z,99748.78
2022-09-13T06:24:56.229Z,99729.25
2022-09-13T06:25:36.332Z,99757.81
2022-09-13T06:26:19.245Z,99740.66
2022-09-13T06:26:59.296Z,99750.00
2022-09-13T06:27:39.274Z,99734.56
2022-09-13T06:28:21.229Z,99745.09
2022-09-13T06:29:03.270Z,99735.75
2022-09-13T06:29:44.326Z,99742.53
2022-09-13T06:30:26.209Z,99735.75
2022-09-13T06:31:09.357Z,99744.91
2022-09-13T06:31:51.279Z,99741.84
2022-09-13T06:32:32.338Z,99743.56
2022-09-13T06:33:12.222Z,99746.63
2022-09-13T06:33:53.304Z,99749.66
2022-09-13T06:34:34.333Z,99744.22
2022-09-13T06:35:16.266Z,99742.53
2022-09-13T06:35:56.329Z,99751.03
2022-09-13T06:36:37.377Z,99740.66
2022-09-13T06:37:17.245Z,99741.19
2022-09-13T06:37:58.678Z,99746.28
2022-09-13T06:38:39.261Z,99754.09
2022-09-13T06:39:19.292Z,99745.59
2022-09-13T06:39:59.277Z,99737.59
2022-09-13T06:40:39.325Z,99729.28
2022-09-13T06:41:25.240Z,99739.16
2022-09-13T06:42:05.277Z,99737.47
2022-09-13T06:42:45.189Z,99736.56
2022-09-13T06:43:25.333Z,99735.03
2022-09-13T06:44:07.229Z,99737.44
2022-09-13T06:44:48.509Z,99738.09
2022-09-13T06:45:29.266Z,99730.28
2022-09-13T06:46:25.248Z,99728.59
2022-09-13T06:47:06.246Z,99732.34
2022-09-13T06:47:46.288Z,99730.63
2022-09-13T06:48:27.203Z,99733.88
2022-09-13T06:49:12.353Z,99738.13
2022-09-13T06:49:52.224Z,99739.13
2022-09-13T06:50:39.276Z,99743.19
2022-09-13T06:51:19.409Z,99742.84
2022-09-13T06:52:07.200Z,99728.75
2022-09-13T06:52:41.027Z,99736.06
2022-09-13T06:53:28.206Z,99730.44
2022-09-13T06:54:03.858Z,99730.09
2022-09-13T06:54:51.223Z,99719.38
2022-09-13T06:55:25.074Z,99714.47
2022-09-13T06:56:15.217Z,99730.09
2022-09-13T06:56:49.360Z,99713.63
2022-09-13T06:57:23.941Z,99723.44
2022-09-13T06:58:05.235Z,99724.78
2022-09-13T06:58:40.311Z,99726.16
2022-09-13T06:59:13.926Z,99722.44
2022-09-13T06:59:54.189Z,99723.56
2022-09-13T07:00:28.340Z,99714.75
2022-09-13T07:01:24.419Z,99724.63
2022-09-13T07:02:04.295Z,99721.38
2022-09-13T07:02:45.197Z,99726.81
2022-09-13T07:03:25.360Z,99722.56
2022-09-13T07:04:08.232Z,99714.59
2022-09-13T07:04:48.287Z,99728.53
2022-09-13T07:05:28.199Z,99688.75
2022-09-13T07:06:37.297Z,99717.47
2022-09-13T07:07:10.922Z,99717.66
2022-09-13T07:07:59.180Z,99717.97
2022-09-13T07:08:34.423Z,99721.69
2022-09-13T07:09:25.217Z,99720.00
2022-09-13T07:10:00.953Z,99714.88
2022-09-13T07:10:48.251Z,99717.41
2022-09-13T07:11:25.258Z,99711.97
2022-09-13T07:12:05.301Z,99703.28
2022-09-13T07:12:39.270Z,99712.63
2022-09-13T07:13:12.912Z,99710.75
2022-09-13T07:14:01.211Z,99715.38
2022-09-13T07:14:36.297Z,99718.91
2022-09-13T07:15:10.269Z,99698.22
2022-09-13T07:15:50.217Z,99712.13
2022-09-13T07:16:26.972Z,99712.13
2022-09-13T07:17:00.964Z,99710.94
2022-09-13T07:17:41.249Z,99721.28
2022-09-13T07:18:15.245Z,99711.97
2022-09-13T07:19:00.726Z,99711.59
2022-09-13T07:19:42.193Z,99718.91
2022-09-13T07:20:17.339Z,99725.84
2022-09-13T07:20:50.975Z,99715.63
2022-09-13T07:21:33.146Z,99720.91
2022-09-13T07:22:07.532Z,99718.84
2022-09-13T07:22:48.226Z,99713.72
2022-09-13T07:23:28.634Z,99714.63
2022-09-13T07:24:03.369Z,99717.50
2022-09-13T07:24:43.190Z,99718.19
2022-09-13T07:25:17.277Z,99717.81
2022-09-13T07:26:01.959Z,99710.66
2022-09-13T07:26:43.156Z,99723.56
2022-09-13T07:27:17.301Z,99712.72
2022-09-13T07:27:57.221Z,99721.56
2022-09-13T07:28:47.300Z,99726.28
2022-09-13T07:29:30.194Z,99725.63
2022-09-13T07:30:11.215Z,99724.94
2022-09-13T07:30:51.295Z,99710.66
2022-09-13T07:31:40.272Z,99729.16
2022-09-13T07:32:20.288Z,99721.03
2022-09-13T07:33:07.234Z,99722.53
2022-09-13T07:33:43.360Z,99723.94
2022-09-13T07:34:36.166Z,99691.81
2022-09-13T07:35:09.904Z,99719.47
2022-09-13T07:35:57.236Z,99717.06
2022-09-13T07:36:33.426Z,99725.91
2022-09-13T07:37:20.176Z,99724.53
2022-09-13T07:37:53.911Z,99725.72
2022-09-13T07:38:34.196Z,99719.59
2022-09-13T07:39:14.357Z,99700.75
2022-09-13T07:39:49.886Z,99717.31
2022-09-13T07:40:30.170Z,99717.13
2022-09-13T07:41:06.638Z,99720.53
2022-09-13T07:41:40.961Z,99723.03
2022-09-13T07:42:21.149Z,99718.28
2022-09-13T07:42:55.322Z,99726.66
2022-09-13T07:43:29.545Z,99726.53
2022-09-13T07:44:11.174Z,99723.50
2022-09-13T07:44:45.252Z,99710.41
2022-09-13T07:45:18.920Z,99723.63
2022-09-13T07:46:08.186Z,99721.75
2022-09-13T07:46:44.324Z,99724.47
2022-09-13T07:47:18.002Z,99727.19
2022-09-13T07:48:00.147Z,99717.97
2022-09-13T07:48:36.269Z,99718.97
2022-09-13T07:49:19.364Z,99714.84
2022-09-13T07:50:00.231Z,99715.84
2022-09-13T07:50:40.183Z,99715.81
2022-09-13T07:51:29.278Z,99717.16
2022-09-13T07:52:09.155Z,99713.72
2022-09-13T07:52:49.216Z,99707.25
2022-09-13T07:53:29.168Z,99709.97
2022-09-13T07:54:13.318Z,99711.69
2022-09-13T07:54:55.165Z,99711.38
2022-09-13T07:55:36.387Z,99721.56
2022-09-13T07:56:25.173Z,99703.69
2022-09-13T07:57:05.265Z,99717.16
2022-09-13T07:57:45.185Z,99706.41
2022-09-13T07:58:25.322Z,99717.81
2022-09-13T07:59:08.152Z,99696.28
2022-09-13T07:59:49.192Z,99720.22
2022-09-13T08:00:31.169Z,99706.25
2022-09-13T08:01:24.275Z,99705.22
2022-09-13T08:02:04.345Z,99714.72
2022-09-13T08:02:44.322Z,99710.34
2022-09-13T08:03:24.166Z,99720.88
2022-09-13T08:04:07.272Z,99709.16
2022-09-13T08:04:47.190Z,99699.19
2022-09-13T08:05:27.260Z,99720.59
2022-09-13T08:06:08.161Z,99711.38
2022-09-13T08:06:49.935Z,99717.81
2022-09-13T08:07:30.219Z,99714.41
2022-09-13T08:08:10.238Z,99718.84
2022-09-13T08:08:50.226Z,99708.13
2022-09-13T08:09:30.199Z,99715.56
2022-09-13T08:10:11.177Z,99703.44
2022-09-13T08:10:51.292Z,99699.78
2022-09-13T08:11:37.216Z,99683.72
2022-09-13T08:12:18.274Z,99700.59
2022-09-13T08:12:58.114Z,99705.00
2022-09-13T08:13:38.322Z,99707.00
2022-09-13T08:14:21.105Z,99701.19
2022-09-13T08:15:01.498Z,99697.72
2022-09-13T08:15:42.322Z,99692.63
2022-09-13T08:16:25.201Z,99701.19
2022-09-13T08:17:05.205Z,99691.97
2022-09-13T08:17:46.207Z,99700.34
2022-09-13T08:18:26.201Z,99697.91
2022-09-13T08:19:12.368Z,99691.13
2022-09-13T08:19:53.200Z,99691.91
2022-09-13T08:20:33.198Z,99706.50
2022-09-13T08:21:13.106Z,99702.06
2022-09-13T08:21:54.213Z,99693.34
2022-09-13T08:22:34.174Z,99707.81
2022-09-13T08:23:17.210Z,99700.09
2022-09-13T08:24:01.169Z,99691.72
2022-09-13T08:24:41.189Z,99704.59
2022-09-13T08:25:28.206Z,99689.09
2022-09-13T08:26:08.146Z,99688.72
2022-09-13T08:26:56.138Z,99689.56
2022-09-13T08:27:30.208Z,99682.88
2022-09-13T08:28:17.164Z,99688.81
2022-09-13T08:29:02.208Z,99686.56
2022-09-13T08:29:42.136Z,99684.50
2022-09-13T08:30:22.763Z,99689.84
2022-09-13T08:31:04.190Z,99684.97
2022-09-13T08:31:44.214Z,99675.28
2022-09-13T08:32:24.307Z,99687.16
2022-09-13T08:33:04.215Z,99683.84
2022-09-13T08:33:46.750Z,99678.41
2022-09-13T08:34:27.306Z,99687.81
2022-09-13T08:35:07.146Z,99675.88
2022-09-13T08:35:47.214Z,99668.81
2022-09-13T08:36:30.130Z,99675.69
2022-09-13T08:37:10.588Z,99680.38
2022-09-13T08:37:51.142Z,99670.94
2022-09-13T08:38:31.466Z,99677.72
2022-09-13T08:39:11.192Z,99677.34
2022-09-13T08:39:51.235Z,99667.44
2022-09-13T08:40:35.165Z,99671.22
2022-09-13T08:41:48.939Z,99674.22
2022-09-13T08:42:49.108Z,99663.31
2022-09-13T08:43:44.152Z,99670.81
2022-09-13T08:44:30.131Z,99672.13
2022-09-13T08:45:10.275Z,99661.75
2022-09-13T08:45:58.213Z,99671.91
2022-09-13T08:46:48.259Z,99662.69
2022-09-13T08:47:52.130Z,99667.50
2022-09-13T08:48:44.254Z,99658.13
2022-09-13T08:49:41.224Z,99670.72
2022-09-13T08:50:42.311Z,99649.53
2022-09-13T08:51:48.137Z,99674.41
2022-09-13T08:52:47.168Z,99663.63
2022-09-13T08:53:37.085Z,99676.69
2022-09-13T08:54:22.420Z,99684.72
2022-09-13T08:55:03.157Z,99672.34
2022-09-13T08:56:14.432Z,99678.28
2022-09-13T08:57:19.169Z,99671.38
2022-09-13T08:58:25.776Z,99643.81
2022-09-13T08:59:29.089Z,99669.69
2022-09-13T09:00:21.004Z,99646.47
2022-09-13T09:01:43.179Z,99665.06
2022-09-13T09:03:18.156Z,99665.22